Time;durP1;ratioP1;P1;durP2;ratioP2;P2;SDS_P1;SDS_P2;PMS_P1;PMS_P2;Temp;Humidity;BMP_temperature;BMP_pressure;BME280_temperature;BME280_humidity;BME280_pressure;Samples;Min_cycle;Max_cycle;Signal;HPM_P1;HPM_P2
2022/03/22 00:01:21;;;;;;;10.23;7.17;;;;;;;0.90;81.51;95864.63;5065214;28;20572;-65
2022/03/22 00:04:07;;;;;;;13.33;8.13;;;;;;;1.27;81.07;95859.16;5058441;28;20739;-65
2022/03/22 00:06:53;;;;;;;11.70;8.07;;;;;;;1.20;82.96;95867.19;5066615;28;20599;-65
2022/03/22 00:09:39;;;;;;;12.03;8.00;;;;;;;1.05;83.23;95860.16;5070437;28;20201;-65
2022/03/22 00:12:26;;;;;;;13.30;8.73;;;;;;;1.05;83.82;95858.22;5067300;28;20218;-65
2022/03/22 00:15:12;;;;;;;11.03;8.37;;;;;;;1.15;83.15;95860.22;5065775;28;20266;-65
2022/03/22 00:18:02;;;;;;;11.10;7.63;;;;;;;0.92;81.96;95867.72;5064297;28;21267;-65
2022/03/22 00:20:49;;;;;;;14.20;7.73;;;;;;;0.88;83.34;95860.78;5073432;28;20217;-65
2022/03/22 00:23:35;;;;;;;10.67;7.67;;;;;;;1.13;84.00;95850.97;5073269;28;20217;-65
2022/03/22 00:26:21;;;;;;;11.83;8.57;;;;;;;1.13;83.21;95857.16;5074252;28;20292;-65
2022/03/22 00:29:07;;;;;;;11.07;7.93;;;;;;;0.65;83.11;95873.59;5059473;28;20682;-65
2022/03/22 00:31:53;;;;;;;11.67;8.43;;;;;;;0.48;85.40;95858.06;5074389;28;20705;-65
2022/03/22 00:34:44;;;;;;;11.70;8.13;;;;;;;0.54;85.13;95862.78;5077052;28;20239;-65
2022/03/22 00:37:30;;;;;;;14.97;7.73;;;;;;;0.48;85.37;95864.22;5078165;28;20276;-65
2022/03/22 00:40:17;;;;;;;13.67;7.90;;;;;;;0.60;86.79;95853.22;5071204;28;20280;-65
2022/03/22 00:43:03;;;;;;;12.70;8.83;;;;;;;0.89;85.71;95856.94;5064101;28;20198;-65
2022/03/22 00:45:50;;;;;;;13.60;8.33;;;;;;;0.63;83.84;95859.78;5061021;28;20209;-65
2022/03/22 00:48:36;;;;;;;17.60;8.17;;;;;;;0.39;86.22;95857.63;5066591;28;20314;-65
2022/03/22 00:51:24;;;;;;;11.90;8.03;;;;;;;0.46;86.10;95861.13;5067724;28;20959;-64
2022/03/22 00:54:10;;;;;;;10.53;8.73;;;;;;;0.25;86.23;95857.47;5072378;28;20200;-65
2022/03/22 00:56:55;;;;;;;12.77;9.07;;;;;;;0.11;88.02;95855.38;5045879;28;20201;-65
2022/03/22 01:02:49;;;;;;;11.93;7.70;;;;;;;0.10;88.31;95850.41;5051175;28;20201;-64
2022/03/22 01:05:36;;;;;;;13.73;9.27;;;;;;;0.19;87.88;95853.56;5088176;28;20193;-65
2022/03/22 01:08:23;;;;;;;14.80;9.13;;;;;;;-0.06;88.88;95851.38;5077877;28;20209;-65
2022/03/22 01:11:08;;;;;;;11.77;8.27;;;;;;;-0.25;90.68;95850.72;5083957;28;20683;-64
2022/03/22 01:13:56;;;;;;;12.50;8.67;;;;;;;-0.30;92.11;95849.16;5055751;28;20236;-64
2022/03/22 01:16:41;;;;;;;13.33;9.33;;;;;;;-0.30;92.32;95854.50;5067739;28;20282;-65
2022/03/22 01:19:27;;;;;;;14.03;8.60;;;;;;;-0.01;92.19;95861.78;5083143;28;20204;-65
2022/03/22 01:22:15;;;;;;;13.87;9.50;;;;;;;0.17;91.66;95859.28;5055964;28;20610;-64
2022/03/22 01:25:01;;;;;;;12.73;10.30;;;;;;;0.38;90.74;95854.16;5068690;28;20196;-65
2022/03/22 01:27:48;;;;;;;16.00;9.33;;;;;;;0.46;89.16;95861.13;5089760;28;20198;-64
2022/03/22 01:30:36;;;;;;;11.17;8.47;;;;;;;0.23;89.84;95849.78;5072915;28;20533;-64
2022/03/22 01:33:21;;;;;;;14.57;9.50;;;;;;;0.26;89.52;95849.03;5045053;28;20344;-65
2022/03/22 01:36:07;;;;;;;13.23;9.90;;;;;;;0.15;90.36;95858.91;5067229;28;20228;-65
2022/03/22 01:38:53;;;;;;;15.17;9.33;;;;;;;-0.10;90.47;95860.50;5072689;28;20239;-65
2022/03/22 01:41:39;;;;;;;16.67;9.30;;;;;;;-0.08;90.62;95852.84;5071604;28;20204;-64
2022/03/22 01:44:25;;;;;;;13.43;9.30;;;;;;;-0.18;91.85;95850.81;5069800;28;20201;-65
2022/03/22 01:47:11;;;;;;;13.00;9.93;;;;;;;-0.20;91.35;95853.88;5075710;28;20213;-64
2022/03/22 01:49:57;;;;;;;17.13;9.87;;;;;;;-0.13;93.38;95851.28;5079555;28;20741;-64
2022/03/22 01:52:44;;;;;;;13.03;9.20;;;;;;;0.10;92.50;95848.50;5078244;28;20315;-64
2022/03/22 01:55:30;;;;;;;16.60;9.13;;;;;;;0.09;91.35;95846.94;5077868;28;20228;-64
2022/03/22 01:58:16;;;;;;;14.37;9.73;;;;;;;-0.07;91.37;95832.94;5069161;28;20201;-64
2022/03/22 02:07:14;;;;;;;14.07;9.53;;;;;;;-0.07;93.52;95841.00;5070800;28;20201;-65
2022/03/22 02:10:00;;;;;;;13.37;9.80;;;;;;;0.08;92.03;95831.97;5069190;28;20207;-64
2022/03/22 02:12:46;;;;;;;16.37;9.47;;;;;;;-0.23;91.27;95846.56;5073584;28;20539;-64
2022/03/22 02:15:32;;;;;;;15.07;9.73;;;;;;;-0.33;93.20;95828.41;5079815;28;20731;-64
2022/03/22 02:18:18;;;;;;;15.83;9.17;;;;;;;-0.27;93.07;95835.00;5068285;28;20906;-65
2022/03/22 02:21:06;;;;;;;14.20;9.17;;;;;;;-0.35;94.85;95836.06;5059329;28;20214;-65
2022/03/22 02:23:54;;;;;;;15.00;9.43;;;;;;;-0.23;94.32;95838.50;5084546;28;20182;-65
2022/03/22 02:26:40;;;;;;;14.73;9.67;;;;;;;-0.21;95.41;95827.41;5067236;28;20193;-65
2022/03/22 02:29:27;;;;;;;13.23;9.60;;;;;;;-0.38;94.63;95830.63;5079362;28;20655;-65
2022/03/22 02:32:13;;;;;;;13.60;10.33;;;;;;;-0.41;95.68;95837.50;5063152;28;20846;-65
2022/03/22 02:34:59;;;;;;;12.83;10.07;;;;;;;-0.40;97.43;95824.84;5053335;28;20930;-64
2022/03/22 02:37:46;;;;;;;17.13;10.10;;;;;;;-0.34;96.29;95837.59;5069413;28;20194;-64
2022/03/22 02:40:32;;;;;;;14.80;9.67;;;;;;;-0.57;97.50;95834.22;5078802;28;20287;-65
2022/03/22 02:43:18;;;;;;;13.20;9.80;;;;;;;-0.71;99.68;95812.56;5074967;28;20700;-64
2022/03/22 02:46:04;;;;;;;16.93;10.47;;;;;;;-0.52;99.14;95825.84;5051859;28;20193;-65
2022/03/22 02:48:50;;;;;;;16.63;10.03;;;;;;;-0.71;98.76;95831.34;5062145;28;20217;-65
2022/03/22 02:51:36;;;;;;;15.40;10.63;;;;;;;-0.73;99.90;95816.75;5075452;28;20221;-65
2022/03/22 02:54:21;;;;;;;15.30;10.70;;;;;;;-0.73;99.44;95832.84;5055080;28;20238;-64
2022/03/22 02:57:07;;;;;;;14.63;10.63;;;;;;;-0.86;100.00;95820.78;5053414;28;20265;-65
2022/03/22 02:59:53;;;;;;;17.63;10.03;;;;;;;-0.87;100.00;95820.03;5058924;28;20659;-65
2022/03/22 03:02:44;;;;;;;14.43;10.13;;;;;;;-0.91;100.00;95821.06;5079366;28;20231;-64
2022/03/22 03:05:30;;;;;;;18.17;10.60;;;;;;;-0.40;100.00;95820.28;5089178;28;20197;-64
2022/03/22 03:08:16;;;;;;;17.43;10.27;;;;;;;-0.21;99.52;95822.03;5060450;28;20728;-65
2022/03/22 03:11:02;;;;;;;15.30;10.73;;;;;;;-0.54;98.97;95819.28;5063738;28;20217;-64
2022/03/22 03:16:53;;;;;;;15.50;10.60;;;;;;;-0.61;100.00;95829.97;5072349;28;20193;-65
2022/03/22 03:19:39;;;;;;;13.27;9.57;;;;;;;-0.85;99.34;95825.00;5074186;28;20194;-65
2022/03/22 03:22:26;;;;;;;16.07;10.80;;;;;;;-0.92;100.00;95831.06;5059384;28;20205;-64
2022/03/22 03:25:13;;;;;;;17.17;10.50;;;;;;;-0.96;100.00;95824.06;5058537;28;20805;-65
2022/03/22 03:27:58;;;;;;;18.40;10.00;;;;;;;-0.95;100.00;95821.03;5056116;28;20217;-65
2022/03/22 03:30:44;;;;;;;13.60;10.27;;;;;;;-0.81;100.00;95821.25;5061214;28;20301;-64
2022/03/22 03:33:30;;;;;;;16.20;10.57;;;;;;;-0.89;100.00;95822.28;5067828;28;20583;-64
2022/03/22 03:36:16;;;;;;;17.70;10.83;;;;;;;-0.75;100.00;95830.53;5068616;28;20221;-65
2022/03/22 03:39:03;;;;;;;13.47;10.20;;;;;;;-1.22;100.00;95814.88;5062878;28;20545;-66
2022/03/22 03:41:59;;;;;;;13.43;10.10;;;;;;;-1.08;100.00;95829.63;5071884;28;20245;-65
2022/03/22 03:47:49;;;;;;;16.13;10.47;;;;;;;-1.37;100.00;95831.88;5068867;28;20646;-65
2022/03/22 03:50:35;;;;;;;13.63;9.77;;;;;;;-0.83;100.00;95833.47;5085035;28;20192;-65
2022/03/22 03:53:23;;;;;;;17.80;10.67;;;;;;;-0.80;100.00;95825.47;5034124;28;20210;-65
2022/03/22 03:56:10;;;;;;;14.50;9.80;;;;;;;-0.74;100.00;95828.59;5060690;28;20185;-65
2022/03/22 03:58:57;;;;;;;13.23;9.77;;;;;;;-0.82;100.00;95843.06;5064236;28;20193;-65
2022/03/22 04:01:44;;;;;;;16.43;10.80;;;;;;;-0.94;100.00;95843.25;5055151;28;20300;-65
2022/03/22 04:04:30;;;;;;;17.93;10.97;;;;;;;-0.66;100.00;95839.06;5060371;28;20194;-65
2022/03/22 04:07:18;;;;;;;12.90;9.77;;;;;;;-0.87;100.00;95835.31;5061824;28;20278;-65
2022/03/22 04:10:04;;;;;;;17.67;10.23;;;;;;;-0.86;100.00;95845.69;5057775;28;20206;-65
2022/03/22 04:12:50;;;;;;;14.23;10.03;;;;;;;-0.83;100.00;95847.63;5060038;28;20370;-66
2022/03/22 04:15:36;;;;;;;14.60;10.43;;;;;;;-0.94;100.00;95849.41;5086060;28;20192;-65
2022/03/22 04:18:22;;;;;;;14.73;10.40;;;;;;;-0.94;100.00;95851.31;5056227;28;20185;-65
2022/03/22 04:21:08;;;;;;;18.80;12.03;;;;;;;-1.03;100.00;95859.59;5077659;28;20313;-65
2022/03/22 04:23:54;;;;;;;24.10;14.00;;;;;;;-1.04;100.00;95857.28;5042869;28;20196;-65
2022/03/22 04:26:42;;;;;;;13.03;9.67;;;;;;;-1.11;100.00;95852.56;5081975;28;20201;-65
2022/03/22 04:32:41;;;;;;;19.43;10.77;;;;;;;-1.18;100.00;95833.69;5064737;28;20226;-65
2022/03/22 04:35:28;;;;;;;16.33;10.63;;;;;;;-1.32;100.00;95861.03;5058628;28;20197;-65
2022/03/22 04:38:14;;;;;;;14.47;10.50;;;;;;;-1.28;100.00;95845.81;5061927;28;20194;-65
2022/03/22 04:41:00;;;;;;;12.97;9.97;;;;;;;-1.40;100.00;95848.66;5067416;28;20212;-65
2022/03/22 04:43:46;;;;;;;16.03;10.63;;;;;;;-1.57;100.00;95851.03;5086730;28;20182;-65
2022/03/22 04:46:32;;;;;;;15.67;10.43;;;;;;;-1.41;100.00;95849.78;5059936;28;20276;-65
2022/03/22 04:49:18;;;;;;;14.70;9.73;;;;;;;-1.45;100.00;95856.22;5075674;28;20194;-66
2022/03/22 04:58:14;;;;;;;13.13;9.57;;;;;;;-1.14;100.00;95844.47;5071762;28;20201;-65
2022/03/22 05:01:00;;;;;;;13.20;9.40;;;;;;;-1.33;100.00;95859.50;5061144;28;20630;-66
2022/03/22 05:03:45;;;;;;;13.40;9.80;;;;;;;-1.67;100.00;95860.44;5075374;28;20193;-65
2022/03/22 05:06:35;;;;;;;13.93;9.97;;;;;;;-1.70;100.00;95863.84;5090703;28;20197;-64
2022/03/22 05:09:22;;;;;;;15.07;9.23;;;;;;;-1.53;100.00;95859.91;5073093;28;20204;-65
2022/03/22 05:12:13;;;;;;;15.17;9.27;;;;;;;-1.49;100.00;95864.19;5068272;28;20262;-65
2022/03/22 05:14:59;;;;;;;13.40;9.57;;;;;;;-1.57;100.00;95867.09;5069228;28;20305;-65
2022/03/22 05:17:47;;;;;;;13.97;10.10;;;;;;;-1.71;100.00;95866.84;5075310;28;20197;-65
2022/03/22 05:20:33;;;;;;;14.77;9.80;;;;;;;-1.62;100.00;95860.13;5075092;28;20264;-65
2022/03/22 05:23:19;;;;;;;12.50;9.27;;;;;;;-1.44;100.00;95865.78;5070387;28;20532;-65
2022/03/22 05:26:05;;;;;;;13.77;9.93;;;;;;;-1.79;100.00;95862.50;5062445;28;20250;-65
2022/03/22 05:28:52;;;;;;;16.83;10.20;;;;;;;-1.65;100.00;95860.06;5079708;28;20212;-64
2022/03/22 05:31:38;;;;;;;13.63;9.73;;;;;;;-1.46;100.00;95846.66;5067537;28;20253;-65
2022/03/22 05:34:24;;;;;;;14.77;10.37;;;;;;;-1.35;100.00;95872.47;5076679;28;20268;-65
2022/03/22 05:37:10;;;;;;;13.47;9.93;;;;;;;-1.20;100.00;95872.72;5073077;28;20627;-65
2022/03/22 05:39:56;;;;;;;15.20;10.70;;;;;;;-1.40;100.00;95870.09;5064019;28;20228;-63
2022/03/22 05:42:42;;;;;;;13.57;9.83;;;;;;;-1.39;100.00;95878.88;5080224;28;20204;-63
2022/03/22 05:45:28;;;;;;;12.77;9.80;;;;;;;-1.37;100.00;95863.25;5068552;28;20670;-63
2022/03/22 05:48:18;;;;;;;16.63;9.93;;;;;;;-1.08;100.00;95867.94;5070916;28;20622;-63
2022/03/22 05:51:05;;;;;;;17.60;10.47;;;;;;;-1.11;100.00;95881.28;5070303;28;20558;-63
2022/03/22 05:53:51;;;;;;;13.20;9.63;;;;;;;-0.80;100.00;95886.38;5081664;28;20304;-63
2022/03/22 05:56:36;;;;;;;18.97;9.83;;;;;;;-0.88;100.00;95882.06;5075055;28;20635;-63
2022/03/22 05:59:22;;;;;;;16.00;9.90;;;;;;;-1.03;100.00;95883.72;5070900;28;20250;-63
2022/03/22 06:02:09;;;;;;;17.07;9.53;;;;;;;-1.13;100.00;95878.97;5063212;28;20702;-63
2022/03/22 06:04:54;;;;;;;11.73;9.63;;;;;;;-0.94;100.00;95889.63;5054164;28;20232;-63
2022/03/22 06:07:41;;;;;;;13.70;9.60;;;;;;;-1.09;100.00;95885.16;5076958;28;20232;-64
2022/03/22 06:10:28;;;;;;;17.43;10.73;;;;;;;-0.84;100.00;95882.84;5073153;28;20251;-63
2022/03/22 06:13:14;;;;;;;15.70;10.70;;;;;;;-0.44;100.00;95886.53;5068346;28;20596;-63
2022/03/22 06:16:00;;;;;;;14.57;11.13;;;;;;;-0.35;100.00;95884.34;5061135;28;20193;-64
2022/03/22 06:18:46;;;;;;;21.33;11.60;;;;;;;-0.21;100.00;95899.88;5079599;28;20223;-63
2022/03/22 06:21:32;;;;;;;18.43;10.37;;;;;;;-0.24;100.00;95890.63;5037928;28;20836;-62
2022/03/22 06:24:18;;;;;;;21.23;10.67;;;;;;;-0.44;100.00;95885.78;5075230;28;20187;-61
2022/03/22 06:27:04;;;;;;;20.57;11.27;;;;;;;-0.89;100.00;95883.16;5084863;28;20570;-62
2022/03/22 06:29:50;;;;;;;14.23;10.17;;;;;;;-1.01;100.00;95889.50;5066715;28;20193;-62
2022/03/22 06:32:47;;;;;;;17.17;10.50;;;;;;;-0.82;100.00;95889.41;5069435;28;20702;-62
2022/03/22 06:35:34;;;;;;;17.07;10.97;;;;;;;-0.20;100.00;95894.13;5076790;28;20181;-62
2022/03/22 06:38:20;;;;;;;24.43;15.20;;;;;;;0.11;100.00;95884.16;5062667;28;20256;-62
2022/03/22 06:41:05;;;;;;;39.17;22.07;;;;;;;0.23;100.00;95879.31;5072671;28;20317;-62
2022/03/22 06:43:51;;;;;;;56.47;29.70;;;;;;;0.44;100.00;95887.59;5069493;28;20189;-62
2022/03/22 06:46:37;;;;;;;64.93;35.77;;;;;;;1.08;100.00;95886.28;5050732;28;20206;-61
2022/03/22 06:49:23;;;;;;;71.50;37.53;;;;;;;1.66;97.05;95887.09;5070229;28;20264;-62
2022/03/22 06:52:10;;;;;;;88.57;44.73;;;;;;;2.05;93.20;95892.69;5048553;28;20692;-62
2022/03/22 06:54:56;;;;;;;68.80;35.53;;;;;;;2.55;90.32;95894.41;5048900;28;20212;-62
2022/03/22 06:57:42;;;;;;;48.40;27.57;;;;;;;2.71;89.54;95894.06;5086376;28;20216;-62
2022/03/22 07:00:28;;;;;;;45.43;21.70;;;;;;;3.00;89.16;95895.66;5088342;28;20203;-62
2022/03/22 07:03:15;;;;;;;20.60;12.27;;;;;;;3.32;87.84;95904.56;5074351;28;20280;-62
2022/03/22 07:06:00;;;;;;;23.10;11.90;;;;;;;3.41;87.24;95896.84;5066395;28;20201;-62
2022/03/22 07:08:47;;;;;;;26.57;15.50;;;;;;;3.37;86.16;95906.88;5070484;28;20219;-62
2022/03/22 07:11:51;;;;;;;23.80;13.50;;;;;;;3.35;86.34;95909.94;5065456;28;20590;-62
2022/03/22 07:14:40;;;;;;;17.03;11.13;;;;;;;3.38;87.63;95911.09;5069728;28;20185;-62
2022/03/22 07:17:27;;;;;;;21.47;11.90;;;;;;;3.48;88.33;95907.63;5060051;28;20206;-62
2022/03/22 07:20:13;;;;;;;21.33;12.43;;;;;;;3.60;88.03;95908.00;5049725;28;20662;-62
2022/03/22 07:23:00;;;;;;;27.77;11.47;;;;;;;3.73;86.32;95902.97;5050802;28;20643;-62
2022/03/22 07:25:46;;;;;;;28.63;12.13;;;;;;;3.70;88.76;95898.34;5070311;28;20226;-63
2022/03/22 07:28:34;;;;;;;21.07;11.17;;;;;;;3.56;93.24;95911.88;5086587;28;20199;-62
2022/03/22 07:31:19;;;;;;;15.97;11.13;;;;;;;3.47;94.44;95914.19;5087272;28;20223;-62
2022/03/22 07:34:11;;;;;;;18.63;11.27;;;;;;;3.51;93.78;95899.50;5076583;28;20245;-63
2022/03/22 07:36:57;;;;;;;16.27;10.53;;;;;;;3.69;94.12;95904.91;5063270;28;20209;-62
2022/03/22 07:39:43;;;;;;;16.40;12.17;;;;;;;3.89;91.83;95916.84;5077111;28;20235;-63
2022/03/22 07:42:29;;;;;;;14.33;11.00;;;;;;;4.14;90.00;95920.25;5068555;28;20210;-62
2022/03/22 07:45:19;;;;;;;16.30;10.60;;;;;;;4.41;88.62;95936.78;5063045;28;20259;-62
2022/03/22 07:48:05;;;;;;;15.40;10.30;;;;;;;4.51;82.52;95919.75;5055895;28;20194;-62
2022/03/22 07:53:55;;;;;;;13.10;10.73;;;;;;;5.02;82.34;95919.88;5068719;28;20304;-65
2022/03/22 07:56:41;;;;;;;16.60;9.10;;;;;;;5.21;78.39;95918.59;5068905;28;20213;-66
2022/03/22 07:59:27;;;;;;;18.30;10.13;;;;;;;5.68;76.79;95917.81;5058121;28;20204;-65
2022/03/22 08:02:13;;;;;;;14.13;9.87;;;;;;;6.02;73.87;95919.44;5086348;28;20291;-66
2022/03/22 08:04:59;;;;;;;15.43;9.57;;;;;;;6.10;73.92;95928.28;5093475;28;20264;-65
2022/03/22 08:07:45;;;;;;;13.93;9.77;;;;;;;6.25;74.56;95926.97;5064024;28;20205;-66
2022/03/22 08:10:31;;;;;;;18.43;10.17;;;;;;;6.33;75.61;95916.81;5068030;28;20223;-66
2022/03/22 08:13:18;;;;;;;16.57;9.93;;;;;;;6.19;77.19;95925.09;5091552;28;20593;-66
2022/03/22 08:16:05;;;;;;;13.70;10.67;;;;;;;6.45;77.11;95921.72;5066079;28;20282;-66
2022/03/22 08:18:51;;;;;;;13.73;10.00;;;;;;;6.54;78.01;95920.06;5071575;28;20189;-66
2022/03/22 08:21:37;;;;;;;15.47;10.40;;;;;;;6.55;80.12;95920.81;5087360;28;20220;-66
2022/03/22 08:24:23;;;;;;;11.93;9.60;;;;;;;6.66;76.86;95918.75;5079597;28;20208;-66
2022/03/22 08:27:09;;;;;;;15.60;9.60;;;;;;;6.63;75.60;95919.56;5068290;28;20283;-66
2022/03/22 08:29:54;;;;;;;14.20;10.07;;;;;;;6.76;77.33;95915.91;5061692;28;20294;-65
2022/03/22 08:32:41;;;;;;;12.70;9.13;;;;;;;7.10;72.39;95919.31;5062824;28;20244;-65
2022/03/22 08:35:28;;;;;;;14.13;9.27;;;;;;;7.18;75.21;95923.47;5049645;28;20312;-66
2022/03/22 08:38:19;;;;;;;19.27;10.57;;;;;;;7.09;74.94;95922.44;5070808;28;20201;-66
2022/03/22 08:41:05;;;;;;;15.57;8.90;;;;;;;7.12;72.61;95916.19;5069266;28;20217;-66
2022/03/22 08:43:52;;;;;;;21.40;9.67;;;;;;;7.19;72.41;95916.84;5046778;28;20196;-65
2022/03/22 08:46:38;;;;;;;12.73;8.37;;;;;;;7.73;68.46;95916.78;5067621;28;20209;-66
2022/03/22 08:49:24;;;;;;;15.13;9.30;;;;;;;7.85;67.20;95921.66;5071605;28;20229;-66
2022/03/22 08:52:10;;;;;;;24.27;9.17;;;;;;;8.24;65.97;95917.09;5084912;28;20686;-65
2022/03/22 08:54:56;;;;;;;10.77;9.00;;;;;;;8.45;62.31;95916.66;5056974;28;20718;-66
2022/03/22 08:57:44;;;;;;;10.63;7.10;;;;;;;8.45;59.68;95924.09;5055233;28;20206;-66
2022/03/22 09:00:29;;;;;;;11.80;7.40;;;;;;;8.92;55.50;95913.78;5073914;28;20204;-66
2022/03/22 09:03:19;;;;;;;16.90;6.97;;;;;;;9.27;54.99;95911.06;5082621;28;20189;-66
2022/03/22 09:06:07;;;;;;;11.60;6.27;;;;;;;9.62;52.46;95912.94;5079170;28;20205;-65
2022/03/22 09:08:53;;;;;;;9.20;6.27;;;;;;;10.09;45.73;95913.38;5064814;28;20322;-66
2022/03/22 09:11:39;;;;;;;11.60;6.10;;;;;;;10.37;42.44;95896.25;5082434;28;20745;-65
2022/03/22 09:14:27;;;;;;;8.77;6.47;;;;;;;10.42;42.34;95903.16;5075911;28;20256;-64
2022/03/22 09:17:13;;;;;;;10.33;6.53;;;;;;;10.77;45.42;95902.16;5059944;28;20193;-64
2022/03/22 09:19:59;;;;;;;10.33;8.40;;;;;;;10.51;51.70;95908.75;5063654;28;20204;-64
2022/03/22 09:22:48;;;;;;;10.73;7.60;;;;;;;9.72;53.92;95913.91;5069949;28;20217;-64
2022/03/22 09:25:35;;;;;;;12.93;7.33;;;;;;;9.79;51.46;95911.75;5056185;28;20217;-64
2022/03/22 09:28:21;;;;;;;8.67;7.33;;;;;;;9.88;50.40;95913.88;5081445;28;20595;-64
2022/03/22 09:31:07;;;;;;;12.93;6.47;;;;;;;10.41;44.46;95904.34;5065238;28;20216;-64
2022/03/22 09:33:53;;;;;;;14.87;6.93;;;;;;;10.80;47.03;95899.34;5069738;28;20221;-64
2022/03/22 09:36:39;;;;;;;10.80;7.17;;;;;;;10.83;45.82;95898.47;5057667;28;20190;-64
2022/03/22 09:39:25;;;;;;;12.07;7.13;;;;;;;11.13;45.93;95896.44;5082367;28;20200;-64
2022/03/22 09:42:11;;;;;;;7.00;6.23;;;;;;;11.43;44.50;95918.53;5081138;28;20743;-65
2022/03/22 09:45:01;;;;;;;7.77;6.47;;;;;;;11.62;43.75;95892.16;5052432;28;20189;-64
2022/03/22 09:47:48;;;;;;;14.47;6.50;;;;;;;11.65;42.18;95889.34;5073201;28;20503;-65
2022/03/22 09:53:39;;;;;;;6.53;5.87;;;;;;;12.09;37.08;95876.53;5071430;28;20205;-64
2022/03/22 09:56:30;;;;;;;8.13;6.27;;;;;;;11.90;37.61;95872.88;5045991;28;20231;-64
2022/03/22 09:59:20;;;;;;;11.50;6.50;;;;;;;12.02;39.07;95874.03;5081882;28;20250;-64
2022/03/22 10:02:06;;;;;;;11.53;6.63;;;;;;;12.10;39.41;95878.84;5090581;28;20212;-65
2022/03/22 10:04:52;;;;;;;11.27;6.83;;;;;;;12.27;40.37;95871.22;5081972;28;20208;-64
2022/03/22 10:07:39;;;;;;;9.50;7.07;;;;;;;12.41;40.76;95870.72;5080593;28;20214;-64
2022/03/22 10:10:26;;;;;;;11.47;6.63;;;;;;;12.68;38.36;95870.13;5083885;28;20666;-64
2022/03/22 10:13:14;;;;;;;11.77;6.97;;;;;;;12.70;38.73;95876.72;5070272;28;20320;-64
2022/03/22 10:16:03;;;;;;;11.13;6.30;;;;;;;13.02;40.55;95861.84;5049455;28;20206;-64
2022/03/22 10:18:49;;;;;;;9.63;7.27;;;;;;;12.95;38.28;95860.09;5064247;28;20253;-64
2022/03/22 10:21:44;;;;;;;7.93;6.43;;;;;;;13.10;37.85;95849.41;5089989;28;20212;-65
2022/03/22 10:24:30;;;;;;;10.40;6.47;;;;;;;13.21;37.74;95860.72;5074829;28;20222;-64
2022/03/22 10:27:25;;;;;;;14.60;6.87;;;;;;;13.40;37.66;95861.56;5080472;28;20196;-64
2022/03/22 10:30:12;;;;;;;17.10;6.53;;;;;;;13.32;36.26;95866.53;5048111;28;20591;-65
2022/03/22 10:32:58;;;;;;;9.87;6.27;;;;;;;13.36;34.78;95856.22;5064065;28;20213;-64
2022/03/22 10:35:45;;;;;;;9.97;6.33;;;;;;;13.54;34.18;95859.00;5052460;28;20186;-64
2022/03/22 10:38:31;;;;;;;7.63;6.47;;;;;;;13.57;34.01;95841.66;5067968;28;20235;-64
2022/03/22 10:41:24;;;;;;;11.30;6.70;;;;;;;13.38;34.01;95863.97;5061760;28;20249;-64
2022/03/22 10:44:20;;;;;;;7.37;6.00;;;;;;;13.53;34.73;95852.00;5057270;28;20183;-64
2022/03/22 10:47:07;;;;;;;11.33;6.50;;;;;;;13.74;33.69;95858.63;5069749;28;20229;-65
2022/03/22 10:50:01;;;;;;;9.67;6.27;;;;;;;13.79;35.64;95853.28;5036730;28;20223;-64
2022/03/22 10:52:56;;;;;;;7.23;5.90;;;;;;;14.05;33.11;95857.28;5060847;28;20220;-63
2022/03/22 10:55:44;;;;;;;7.77;6.10;;;;;;;13.93;33.56;95844.44;5080529;28;20212;-63
2022/03/22 10:58:31;;;;;;;12.03;7.43;;;;;;;13.82;34.93;95851.59;5067739;28;20206;-63
2022/03/22 11:01:19;;;;;;;9.80;6.27;;;;;;;13.42;34.23;95840.69;5066802;28;20613;-62
2022/03/22 11:04:06;;;;;;;9.17;7.03;;;;;;;13.54;35.96;95852.75;5089233;28;20211;-65
2022/03/22 11:06:54;;;;;;;12.77;6.40;;;;;;;14.04;36.35;95849.50;5057730;28;20662;-65
2022/03/22 11:09:41;;;;;;;14.37;6.90;;;;;;;14.25;36.10;95843.13;5062797;28;20208;-65
2022/03/22 11:12:28;;;;;;;8.60;6.97;;;;;;;14.37;35.77;95840.22;5075434;28;20221;-65
2022/03/22 11:15:15;;;;;;;8.67;6.77;;;;;;;14.20;34.49;95838.22;5064507;28;20674;-65
2022/03/22 11:18:01;;;;;;;7.87;6.87;;;;;;;14.25;35.24;95821.91;5047654;28;20185;-66
2022/03/22 11:20:49;;;;;;;8.93;7.13;;;;;;;14.48;34.77;95824.03;5056400;28;20378;-65
2022/03/22 11:23:35;;;;;;;8.00;6.67;;;;;;;14.40;34.46;95833.06;5067252;28;20205;-66
2022/03/22 11:26:23;;;;;;;9.20;6.20;;;;;;;14.37;34.90;95823.00;5079279;28;20263;-66
2022/03/22 11:29:15;;;;;;;11.83;5.97;;;;;;;14.70;34.83;95831.31;5073439;28;20189;-65
2022/03/22 11:35:13;;;;;;;8.77;6.33;;;;;;;14.71;32.86;95824.63;5058778;28;20196;-65
2022/03/22 11:38:01;;;;;;;8.47;5.83;;;;;;;14.57;34.33;95814.25;5068413;28;20236;-66
2022/03/22 11:44:00;;;;;;;10.17;6.07;;;;;;;14.69;34.55;95816.06;5073020;28;20208;-66
2022/03/22 11:47:00;;;;;;;8.67;6.07;;;;;;;14.79;35.04;95807.34;5059877;28;20193;-66
2022/03/22 11:49:55;;;;;;;10.03;5.53;;;;;;;14.76;32.48;95800.03;5057248;28;20256;-65
2022/03/22 11:52:41;;;;;;;7.77;5.60;;;;;;;14.99;31.91;95795.81;5061238;28;20371;-66
2022/03/22 11:55:27;;;;;;;11.77;6.10;;;;;;;14.83;32.34;95801.69;5074661;28;20197;-66
2022/03/22 11:58:14;;;;;;;33.60;9.90;;;;;;;14.74;30.83;95785.19;5082195;28;20631;-65
2022/03/22 12:01:01;;;;;;;11.40;6.67;;;;;;;15.28;32.09;95796.75;5061760;28;20585;-65
2022/03/22 12:03:53;;;;;;;15.87;6.73;;;;;;;15.17;30.69;95788.25;5068167;28;20794;-66
2022/03/22 12:06:40;;;;;;;11.03;9.37;;;;;;;15.24;31.30;95787.13;5060510;28;20233;-66
2022/03/22 12:09:26;;;;;;;23.43;15.20;;;;;;;15.38;31.31;95795.50;5049151;28;20221;-65
2022/03/22 12:12:16;;;;;;;26.50;24.00;;;;;;;15.23;32.23;95791.13;5060808;28;20271;-66
2022/03/22 12:15:04;;;;;;;10.30;7.17;;;;;;;14.87;32.18;95786.53;5034845;28;20197;-66
2022/03/22 12:17:51;;;;;;;17.87;15.73;;;;;;;15.14;32.88;95793.91;5068185;28;20197;-66
2022/03/22 12:20:38;;;;;;;15.80;8.57;;;;;;;15.23;32.75;95780.88;5081665;28;20220;-66
2022/03/22 12:23:25;;;;;;;10.80;7.50;;;;;;;15.07;32.66;95791.50;5065212;28;20273;-66
2022/03/22 12:26:11;;;;;;;12.60;7.57;;;;;;;14.80;31.72;95778.59;5077334;28;20201;-65
2022/03/22 12:28:57;;;;;;;12.53;7.57;;;;;;;14.74;32.30;95774.19;5087173;28;20210;-66
2022/03/22 12:31:47;;;;;;;9.80;7.13;;;;;;;14.98;32.31;95781.31;5069232;28;20213;-65
2022/03/22 12:34:36;;;;;;;10.37;7.27;;;;;;;15.05;31.55;95772.69;5062166;28;20222;-66
2022/03/22 12:37:22;;;;;;;13.20;7.30;;;;;;;14.97;31.03;95768.00;5079634;28;20203;-65
2022/03/22 12:40:09;;;;;;;12.53;7.67;;;;;;;14.88;31.53;95777.03;5073889;28;20305;-66
2022/03/22 12:42:56;;;;;;;10.97;8.03;;;;;;;14.59;32.37;95773.31;5059031;28;20182;-66
2022/03/22 12:45:44;;;;;;;32.50;23.87;;;;;;;14.72;31.56;95782.13;5055696;28;20194;-65
2022/03/22 12:48:31;;;;;;;14.13;8.37;;;;;;;14.82;31.76;95767.91;5072688;28;20194;-66
2022/03/22 12:51:17;;;;;;;12.70;7.93;;;;;;;15.11;31.67;95770.84;5066373;28;20999;-65
2022/03/22 12:54:03;;;;;;;12.87;8.67;;;;;;;14.95;31.82;95759.47;5072646;28;20217;-66
2022/03/22 12:56:50;;;;;;;13.90;8.53;;;;;;;15.01;31.79;95761.09;5074099;28;20200;-66
2022/03/22 12:59:36;;;;;;;11.13;7.90;;;;;;;15.10;31.49;95758.28;5077445;28;20186;-66
2022/03/22 13:02:23;;;;;;;13.90;8.33;;;;;;;15.06;31.49;95754.19;5073761;28;20217;-65
2022/03/22 13:05:10;;;;;;;10.63;8.33;;;;;;;15.14;31.22;95756.16;5052533;28;20232;-66
2022/03/22 13:07:58;;;;;;;16.90;9.23;;;;;;;15.01;30.91;95750.09;5067322;28;20196;-66
2022/03/22 13:16:57;;;;;;;16.00;8.30;;;;;;;15.03;30.37;95758.66;5077228;28;20186;-65
2022/03/22 13:19:45;;;;;;;10.17;8.30;;;;;;;15.06;30.82;95748.69;5089484;28;20276;-66
2022/03/22 13:22:31;;;;;;;13.10;7.53;;;;;;;14.95;30.46;95742.94;5066895;28;20209;-66
2022/03/22 13:25:20;;;;;;;13.73;8.43;;;;;;;14.88;30.18;95738.53;5077513;28;20213;-66
2022/03/22 13:28:12;;;;;;;13.70;8.90;;;;;;;15.05;30.11;95744.44;5049252;28;20281;-66
2022/03/22 13:30:58;;;;;;;13.77;7.90;;;;;;;14.91;30.51;95740.38;5042229;28;20277;-65
2022/03/22 13:33:53;;;;;;;13.73;8.57;;;;;;;14.97;29.87;95734.97;5074662;28;20785;-66
2022/03/22 13:36:39;;;;;;;12.47;8.20;;;;;;;15.04;30.00;95732.66;5071370;28;20243;-66
2022/03/22 13:39:25;;;;;;;9.50;7.90;;;;;;;15.05;29.44;95736.91;5076468;28;20282;-66